Time;durP1;ratioP1;P1;durP2;ratioP2;P2;SDS_P1;SDS_P2;PMS_P1;PMS_P2;Temp;Humidity;BMP_temperature;BMP_pressure;BME280_temperature;BME280_humidity;BME280_pressure;Samples;Min_cycle;Max_cycle;Signal;HPM_P1;HPM_P2
2023/12/02 00:00:18;;;;;;;4.50;2.63;;;-0.20;99.90;;;0.28;100.00;96996.25;5018095;28;20506;-76
2023/12/02 00:02:47;;;;;;;3.57;2.63;;;-0.10;99.90;;;0.30;100.00;96994.34;5017081;28;21074;-75
2023/12/02 00:05:15;;;;;;;3.50;2.70;;;-0.20;99.90;;;0.25;100.00;96995.72;5017905;28;20462;-76
2023/12/02 00:07:43;;;;;;;4.43;2.90;;;-0.20;99.90;;;0.27;100.00;97004.13;5017635;28;20556;-75
2023/12/02 00:10:12;;;;;;;4.57;2.70;;;-0.20;99.90;;;0.28;100.00;97005.72;5017684;28;21068;-76
2023/12/02 00:12:41;;;;;;;6.90;3.37;;;-0.20;99.90;;;0.28;100.00;97014.25;5016571;28;20475;-76
2023/12/02 00:15:11;;;;;;;5.53;3.00;;;-0.30;99.90;;;0.27;100.00;97011.84;5017070;28;20513;-75
2023/12/02 00:17:39;;;;;;;3.87;2.60;;;-0.20;99.90;;;0.30;100.00;97017.47;5018467;28;20471;-76
2023/12/02 00:20:08;;;;;;;3.37;2.60;;;-0.20;99.90;;;0.33;100.00;97000.94;5017702;28;21043;-75
2023/12/02 00:22:37;;;;;;;6.10;2.90;;;-0.20;99.90;;;0.29;100.00;97010.72;5017584;28;20970;-75
2023/12/02 00:25:06;;;;;;;4.47;3.07;;;-0.20;99.90;;;0.33;100.00;97012.03;5017911;28;20874;-76
2023/12/02 00:27:34;;;;;;;6.17;3.00;;;-0.20;99.90;;;0.32;100.00;97010.41;5015398;28;20480;-75
2023/12/02 00:30:03;;;;;;;6.43;3.50;;;-0.20;99.90;;;0.20;100.00;97014.19;5016445;28;20593;-75
2023/12/02 00:32:33;;;;;;;6.83;3.30;;;-0.30;99.90;;;0.20;100.00;97011.63;5015256;28;20473;-75
2023/12/02 00:35:02;;;;;;;4.97;3.00;;;-0.20;99.90;;;0.23;100.00;97016.47;5016979;28;20464;-75
2023/12/02 00:37:30;;;;;;;3.73;2.70;;;-0.20;99.90;;;0.20;100.00;97011.63;5017699;28;20473;-76
2023/12/02 00:39:59;;;;;;;5.70;3.40;;;-0.40;99.90;;;0.22;100.00;97012.28;5017583;28;20857;-76
2023/12/02 00:42:27;;;;;;;4.10;3.00;;;-0.30;99.90;;;0.21;100.00;97007.28;5015785;28;20581;-76
2023/12/02 00:44:55;;;;;;;6.60;3.47;;;-0.20;99.90;;;0.22;100.00;97007.13;5015768;28;20465;-75
2023/12/02 00:47:24;;;;;;;6.50;3.63;;;-0.20;99.90;;;0.19;100.00;97012.56;5017848;28;20477;-75
2023/12/02 00:49:54;;;;;;;8.53;4.00;;;-0.30;99.90;;;0.23;100.00;97013.06;5017623;28;20523;-76
2023/12/02 00:52:22;;;;;;;3.80;3.13;;;-0.30;99.90;;;0.12;100.00;97014.13;5015384;28;20481;-76
2023/12/02 00:54:50;;;;;;;3.77;3.37;;;-0.40;99.90;;;0.14;100.00;97009.63;5016429;28;20477;-76
2023/12/02 00:57:19;;;;;;;6.23;3.50;;;-0.40;99.90;;;0.11;100.00;97009.09;5017955;28;20473;-75
2023/12/02 00:59:47;;;;;;;6.30;3.13;;;-0.50;99.90;;;0.06;100.00;97014.72;5019140;28;20495;-75
2023/12/02 01:02:16;;;;;;;5.87;2.80;;;-0.40;99.90;;;0.13;100.00;97012.34;5017576;28;20481;-76
2023/12/02 01:04:44;;;;;;;3.87;2.80;;;-0.30;99.90;;;0.08;100.00;97014.53;5016131;28;22114;-76
2023/12/02 01:07:14;;;;;;;6.57;3.53;;;-0.30;99.90;;;0.07;100.00;97016.31;5014819;28;20557;-76
2023/12/02 01:09:42;;;;;;;6.57;3.60;;;-0.50;99.90;;;-0.03;100.00;97023.28;5014472;28;20503;-75
2023/12/02 01:12:11;;;;;;;5.27;3.43;;;-0.30;99.90;;;-0.10;100.00;97017.91;5015238;28;20465;-76
2023/12/02 01:14:39;;;;;;;4.10;2.90;;;-0.40;99.90;;;-0.15;100.00;97025.28;5016355;28;20840;-75
2023/12/02 01:17:10;;;;;;;6.07;3.50;;;-0.50;99.90;;;-0.05;100.00;97025.19;5014550;28;20492;-75
2023/12/02 01:19:38;;;;;;;4.60;3.30;;;-0.50;99.90;;;0.03;100.00;97030.41;5013174;28;20473;-75
2023/12/02 01:22:06;;;;;;;5.07;3.00;;;-0.50;99.90;;;0.04;100.00;97029.44;5014352;28;20543;-75
2023/12/02 01:24:36;;;;;;;4.00;3.23;;;-0.50;99.90;;;0.09;100.00;97034.97;5014203;28;20517;-75
2023/12/02 01:27:05;;;;;;;3.50;2.40;;;-0.50;99.90;;;0.04;100.00;97034.59;5016573;28;20465;-75
2023/12/02 01:29:34;;;;;;;5.03;3.13;;;-0.50;99.90;;;0.09;100.00;97040.09;5014077;28;20494;-76
2023/12/02 01:32:02;;;;;;;5.60;3.47;;;-0.40;99.90;;;0.11;100.00;97040.75;5013340;28;20477;-75
2023/12/02 01:34:32;;;;;;;5.83;3.57;;;-0.40;99.90;;;0.06;100.00;97042.97;5015055;28;20476;-76
2023/12/02 01:37:00;;;;;;;4.77;3.00;;;-0.50;99.90;;;0.10;100.00;97048.63;5013322;28;20908;-75
2023/12/02 01:39:29;;;;;;;5.70;3.30;;;-0.30;99.90;;;0.10;100.00;97053.75;5013657;28;20488;-75
2023/12/02 01:41:59;;;;;;;8.70;3.00;;;-0.40;99.90;;;0.13;100.00;97056.84;5014484;28;20468;-76
2023/12/02 01:44:27;;;;;;;4.03;3.10;;;-0.50;99.90;;;0.12;100.00;97060.38;5016991;28;20476;-76
2023/12/02 01:46:56;;;;;;;4.37;3.13;;;-0.50;99.90;;;0.09;100.00;97065.00;5016003;28;20466;-76
2023/12/02 01:49:27;;;;;;;6.47;3.43;;;-0.50;99.90;;;0.11;100.00;97068.22;5015524;28;20471;-76
2023/12/02 01:51:56;;;;;;;4.90;3.40;;;-0.40;99.90;;;0.10;100.00;97075.13;5015362;28;20464;-76
2023/12/02 01:54:24;;;;;;;5.40;2.90;;;-0.20;99.90;;;0.03;100.00;97081.81;5014948;28;20470;-75
2023/12/02 01:56:53;;;;;;;5.90;3.20;;;-0.40;99.90;;;-0.07;100.00;97075.94;5017152;28;21219;-76
2023/12/02 01:59:23;;;;;;;4.40;2.83;;;-0.60;99.90;;;-0.08;100.00;97072.56;5016033;28;20465;-76
2023/12/02 02:01:51;;;;;;;3.63;2.73;;;-0.50;99.90;;;-0.17;100.00;97077.72;5016257;28;20470;-75
2023/12/02 02:04:20;;;;;;;5.03;3.00;;;-0.50;99.90;;;-0.14;100.00;97077.47;5016419;28;20497;-75
2023/12/02 02:06:50;;;;;;;3.87;2.63;;;-0.60;99.90;;;-0.18;100.00;97073.56;5017067;28;20467;-76
2023/12/02 02:09:18;;;;;;;3.70;2.93;;;-0.50;99.90;;;-0.12;100.00;97080.69;5016020;28;20471;-75
2023/12/02 02:11:50;;;;;;;3.30;2.40;;;-0.60;99.90;;;-0.09;100.00;97072.69;5014189;28;20471;-75
2023/12/02 02:14:18;;;;;;;4.33;3.17;;;-0.60;99.90;;;-0.06;100.00;97074.94;5015329;28;20476;-76
2023/12/02 02:16:48;;;;;;;3.20;2.70;;;-0.40;99.90;;;-0.06;100.00;97077.53;5019737;28;20463;-75
2023/12/02 02:19:19;;;;;;;4.37;2.33;;;-0.50;99.90;;;-0.02;100.00;97078.84;5018914;28;20507;-75
2023/12/02 02:21:53;;;;;;;2.83;2.33;;;-0.60;99.90;;;-0.04;100.00;97083.34;5017355;28;20478;-75
2023/12/02 02:24:22;;;;;;;2.63;2.00;;;-0.60;99.90;;;-0.12;100.00;97088.38;5017209;28;20467;-76
2023/12/02 02:26:51;;;;;;;3.27;2.50;;;-0.60;99.90;;;-0.14;100.00;97085.94;5020584;28;20472;-75
2023/12/02 02:29:19;;;;;;;5.87;3.60;;;-0.70;99.90;;;-0.26;100.00;97073.47;5019401;28;20856;-75
2023/12/02 02:31:47;;;;;;;3.40;2.40;;;-0.70;99.90;;;-0.28;100.00;97075.38;5017119;28;20563;-76
2023/12/02 02:34:16;;;;;;;3.07;2.67;;;-0.70;99.90;;;-0.29;100.00;97084.03;5017143;28;20474;-75
2023/12/02 02:36:44;;;;;;;3.50;2.70;;;-0.70;99.90;;;-0.33;100.00;97087.81;5018118;28;20465;-76
2023/12/02 02:39:14;;;;;;;2.47;2.27;;;-0.80;99.90;;;-0.33;100.00;97086.06;5017363;28;20694;-75
2023/12/02 02:41:44;;;;;;;4.83;2.87;;;-0.90;99.90;;;-0.32;100.00;97084.31;5020089;28;20470;-75
2023/12/02 02:44:12;;;;;;;3.87;2.37;;;-0.90;99.90;;;-0.37;100.00;97082.16;5017195;28;20463;-75
2023/12/02 02:46:41;;;;;;;10.70;2.23;;;-0.90;99.90;;;-0.36;100.00;97083.78;5018223;28;20486;-75
2023/12/02 02:49:10;;;;;;;2.93;2.60;;;-0.90;99.90;;;-0.27;100.00;97092.38;5016207;28;20484;-76
2023/12/02 02:51:39;;;;;;;3.70;2.87;;;-0.90;99.90;;;-0.34;100.00;97091.34;5018578;28;20619;-76
2023/12/02 02:54:07;;;;;;;3.60;2.30;;;-0.80;99.90;;;-0.31;100.00;97083.38;5017233;28;20484;-75
2023/12/02 02:56:38;;;;;;;3.20;2.43;;;-0.80;99.90;;;-0.37;100.00;97074.47;5018672;28;20459;-76
2023/12/02 02:59:06;;;;;;;3.43;2.30;;;-0.80;99.90;;;-0.32;100.00;97084.31;5018599;28;20521;-76
2023/12/02 03:01:35;;;;;;;3.50;2.23;;;-0.80;99.90;;;-0.35;100.00;97085.41;5018196;28;20542;-76
2023/12/02 03:04:03;;;;;;;2.30;2.10;;;-0.80;99.90;;;-0.41;100.00;97085.16;5017244;28;20843;-76
2023/12/02 03:06:32;;;;;;;3.83;2.50;;;-0.80;99.90;;;-0.37;100.00;97086.50;5016470;28;20478;-76
2023/12/02 03:09:00;;;;;;;4.23;2.40;;;-0.90;99.90;;;-0.41;100.00;97091.09;5016919;28;20467;-75
2023/12/02 03:11:29;;;;;;;3.63;2.30;;;-1.00;99.90;;;-0.55;100.00;97091.56;5015610;28;20523;-76
2023/12/02 03:13:59;;;;;;;3.00;2.07;;;-1.10;99.90;;;-0.52;100.00;97088.72;5017443;28;20465;-75
2023/12/02 03:16:27;;;;;;;3.97;2.57;;;-1.00;99.90;;;-0.58;100.00;97092.66;5015999;28;20478;-76
2023/12/02 03:18:56;;;;;;;4.27;2.67;;;-1.10;99.90;;;-0.56;100.00;97098.47;5017035;28;20521;-76
2023/12/02 03:21:25;;;;;;;3.77;2.23;;;-1.10;99.90;;;-0.53;100.00;97100.75;5014878;28;20476;-75
2023/12/02 03:23:54;;;;;;;7.50;3.47;;;-1.10;99.90;;;-0.58;100.00;97113.19;5016666;28;20499;-75
2023/12/02 03:26:25;;;;;;;3.30;2.40;;;-1.00;99.90;;;-0.59;100.00;97118.50;5017183;28;20470;-75
2023/12/02 03:28:53;;;;;;;3.17;2.37;;;-0.90;99.90;;;-0.63;100.00;97112.84;5019358;28;20812;-76
2023/12/02 03:31:23;;;;;;;3.67;2.80;;;-1.00;99.90;;;-0.57;100.00;97114.81;5016755;28;21015;-76
2023/12/02 03:33:52;;;;;;;6.73;3.93;;;-1.00;99.90;;;-0.62;100.00;97119.56;5018596;28;20873;-74
2023/12/02 03:36:20;;;;;;;7.00;3.40;;;-1.10;99.90;;;-0.56;100.00;97113.06;5015875;28;20470;-74
2023/12/02 03:38:49;;;;;;;3.07;2.50;;;-1.10;99.90;;;-0.48;100.00;97117.47;5017545;28;20522;-75
2023/12/02 03:41:18;;;;;;;6.13;2.93;;;-1.00;99.90;;;-0.43;100.00;97120.44;5017811;28;20463;-76
2023/12/02 03:43:46;;;;;;;4.77;2.70;;;-1.00;99.90;;;-0.51;100.00;97127.09;5015671;28;20472;-75
2023/12/02 03:46:28;;;;;;;4.60;2.73;;;-1.10;99.90;;;-0.52;100.00;97122.91;5013395;28;20460;-74
2023/12/02 03:48:57;;;;;;;5.20;4.20;;;-1.10;99.90;;;-0.51;100.00;97121.94;5014256;28;20986;-76
2023/12/02 03:51:26;;;;;;;4.90;3.03;;;-1.00;99.90;;;-0.42;100.00;97129.78;5017086;28;21017;-77
2023/12/02 03:53:55;;;;;;;8.37;4.10;;;-1.00;99.90;;;-0.42;100.00;97125.44;5014029;28;20471;-76
2023/12/02 03:56:23;;;;;;;5.10;3.50;;;-1.10;99.90;;;-0.39;100.00;97135.44;5012599;28;25843;-77
2023/12/02 03:58:52;;;;;;;5.70;3.80;;;-1.00;99.90;;;-0.37;100.00;97137.84;5013822;28;20467;-76
2023/12/02 04:01:20;;;;;;;4.17;2.97;;;-1.00;99.90;;;-0.45;100.00;97142.91;5015807;28;20473;-76
2023/12/02 04:03:50;;;;;;;63.77;24.20;;;-1.00;99.90;;;-0.56;100.00;97134.41;5012994;28;20461;-76
2023/12/02 04:06:18;;;;;;;3.50;2.40;;;-1.10;99.90;;;-0.62;100.00;97140.09;5014210;28;20513;-76
2023/12/02 04:08:47;;;;;;;5.13;3.30;;;-1.20;99.90;;;-0.64;100.00;97146.31;5015142;28;20473;-77
2023/12/02 04:11:15;;;;;;;4.03;3.03;;;-1.20;99.90;;;-0.74;100.00;97155.81;5018702;28;20506;-76
2023/12/02 04:13:44;;;;;;;2.93;2.40;;;-1.10;99.90;;;-0.80;100.00;97157.16;5015479;28;20469;-76
2023/12/02 04:16:12;;;;;;;4.13;2.43;;;-1.30;99.90;;;-0.79;100.00;97156.22;5016944;28;20990;-77
2023/12/02 04:18:41;;;;;;;2.97;2.30;;;-1.30;99.90;;;-0.74;100.00;97166.88;5016504;28;20462;-77
2023/12/02 04:21:11;;;;;;;4.40;3.20;;;-1.20;99.90;;;-0.95;100.00;97168.00;5018072;28;20499;-77
2023/12/02 04:23:39;;;;;;;3.43;2.33;;;-1.30;99.90;;;-0.96;100.00;97172.31;5016802;28;20465;-76
2023/12/02 04:26:08;;;;;;;32.20;14.27;;;-1.30;99.90;;;-0.86;100.00;97170.53;5015784;28;20471;-76
2023/12/02 04:28:37;;;;;;;3.67;2.63;;;-1.30;99.90;;;-0.92;100.00;97168.53;5014682;28;20470;-77
2023/12/02 04:31:06;;;;;;;4.87;2.10;;;-1.40;99.90;;;-0.87;100.00;97184.34;5016199;28;20522;-76
2023/12/02 04:33:35;;;;;;;4.30;2.30;;;-1.40;99.90;;;-0.83;100.00;97172.81;5015924;28;20883;-76
2023/12/02 04:36:04;;;;;;;2.20;2.00;;;-1.40;99.90;;;-0.91;100.00;97179.59;5015948;28;20459;-77
2023/12/02 04:38:34;;;;;;;5.50;3.00;;;-1.40;99.90;;;-1.07;100.00;97180.16;5015729;28;20525;-76
2023/12/02 04:41:03;;;;;;;5.80;2.50;;;-1.40;99.90;;;-1.02;100.00;97185.69;5014514;28;20475;-77
2023/12/02 04:43:31;;;;;;;3.17;2.70;;;-1.40;99.90;;;-0.96;100.00;97187.72;5015419;28;20876;-78
2023/12/02 04:46:00;;;;;;;2.90;1.93;;;-1.40;99.90;;;-1.01;100.00;97190.66;5014044;28;20466;-77
2023/12/02 04:48:30;;;;;;;3.40;2.37;;;-1.40;99.90;;;-0.96;100.00;97197.97;5016249;28;20497;-76
2023/12/02 04:50:59;;;;;;;3.40;2.27;;;-1.40;99.90;;;-0.99;100.00;97193.13;5015423;28;20794;-76
2023/12/02 04:53:27;;;;;;;3.37;2.53;;;-1.40;99.90;;;-1.16;100.00;97193.78;5015660;28;20464;-76
2023/12/02 04:55:57;;;;;;;2.57;2.10;;;-1.50;99.90;;;-1.02;100.00;97206.22;5016278;28;20885;-76
2023/12/02 04:58:25;;;;;;;2.50;1.93;;;-1.50;99.90;;;-1.07;100.00;97203.22;5016230;28;20461;-77
2023/12/02 05:00:53;;;;;;;3.07;2.00;;;-1.50;99.90;;;-1.18;100.00;97214.44;5017137;28;20477;-76
2023/12/02 05:03:22;;;;;;;4.30;2.43;;;-1.60;99.90;;;-1.12;100.00;97213.09;5013421;28;20825;-75
2023/12/02 05:05:51;;;;;;;4.90;3.03;;;-1.60;99.90;;;-1.30;100.00;97224.97;5012487;28;20472;-75
2023/12/02 05:08:20;;;;;;;2.60;1.63;;;-1.60;99.90;;;-1.38;100.00;97222.25;5017437;28;20462;-76
2023/12/02 05:10:48;;;;;;;2.47;2.17;;;-1.70;99.90;;;-1.29;100.00;97229.16;5013554;28;20466;-76
2023/12/02 05:13:18;;;;;;;2.97;2.20;;;-1.60;99.90;;;-1.22;100.00;97217.41;5010989;28;20911;-75
2023/12/02 05:15:47;;;;;;;1.97;1.77;;;-1.60;99.90;;;-1.21;100.00;97226.72;5014385;28;20454;-77
2023/12/02 05:18:15;;;;;;;3.90;2.47;;;-1.60;99.90;;;-1.17;100.00;97230.63;5016759;28;20580;-77
2023/12/02 05:20:44;;;;;;;3.47;2.37;;;-1.50;99.90;;;-1.13;100.00;97229.44;5012780;28;20799;-75
2023/12/02 05:23:12;;;;;;;10.00;4.90;;;-1.60;99.90;;;-1.12;100.00;97238.75;5013739;28;20474;-76
2023/12/02 05:25:40;;;;;;;3.47;2.63;;;-1.60;99.90;;;-1.12;100.00;97239.56;5014338;28;20518;-76
2023/12/02 05:28:09;;;;;;;2.93;2.30;;;-1.70;99.90;;;-1.08;100.00;97243.47;5014081;28;20528;-76
2023/12/02 05:30:39;;;;;;;4.73;3.50;;;-1.60;99.90;;;-1.12;100.00;97246.44;5013462;28;20520;-76
2023/12/02 05:33:07;;;;;;;4.50;3.30;;;-1.70;99.90;;;-1.05;100.00;97261.16;5016174;28;20493;-77
2023/12/02 05:35:36;;;;;;;2.67;2.30;;;-1.60;99.90;;;-0.99;100.00;97264.94;5015861;28;20546;-77
2023/12/02 05:38:04;;;;;;;3.60;2.83;;;-1.60;99.90;;;-1.03;100.00;97263.59;5018039;28;20466;-77
2023/12/02 05:40:33;;;;;;;6.10;3.13;;;-1.60;99.90;;;-1.04;100.00;97267.91;5018228;28;20475;-77
2023/12/02 05:43:01;;;;;;;2.03;1.83;;;-1.60;99.90;;;-1.19;100.00;97273.56;5018960;28;20474;-77
2023/12/02 05:45:30;;;;;;;4.87;2.97;;;-1.90;99.90;;;-1.22;100.00;97273.84;5018211;28;20470;-76
2023/12/02 05:47:59;;;;;;;4.93;3.13;;;-1.90;99.90;;;-1.26;100.00;97272.47;5019846;28;20554;-77
2023/12/02 05:50:28;;;;;;;6.30;2.70;;;-1.60;99.90;;;-1.17;100.00;97281.94;5021066;28;20474;-78
2023/12/02 05:52:57;;;;;;;4.77;3.07;;;-1.70;99.90;;;-1.14;100.00;97281.66;5021511;28;20509;-77
2023/12/02 05:55:26;;;;;;;5.90;3.13;;;-1.70;99.90;;;-1.09;100.00;97289.78;5020974;28;20498;-77
2023/12/02 05:57:54;;;;;;;4.60;3.03;;;-1.70;99.90;;;-1.12;100.00;97300.31;5023119;28;21503;-78
2023/12/02 06:00:23;;;;;;;3.57;2.63;;;-1.60;99.90;;;-1.25;100.00;97303.09;5021536;28;20987;-78
2023/12/02 06:02:52;;;;;;;3.80;3.10;;;-1.80;99.90;;;-1.23;100.00;97308.91;5021104;28;20453;-78
2023/12/02 06:05:22;;;;;;;5.80;2.63;;;-1.70;99.90;;;-1.35;100.00;97304.00;5019670;28;21040;-78
2023/12/02 06:07:50;;;;;;;5.67;3.63;;;-1.90;99.90;;;-1.34;100.00;97311.59;5021839;28;20488;-78
2023/12/02 06:10:19;;;;;;;4.97;3.10;;;-1.80;99.90;;;-1.36;100.00;97310.09;5018890;28;20461;-78
2023/12/02 06:12:47;;;;;;;4.20;3.00;;;-1.90;99.90;;;-1.32;100.00;97308.91;5019326;28;20942;-79
2023/12/02 06:15:16;;;;;;;3.77;2.47;;;-1.80;99.90;;;-1.37;100.00;97311.84;5020554;28;20513;-77
2023/12/02 06:17:44;;;;;;;3.93;2.70;;;-1.90;99.90;;;-1.32;100.00;97314.03;5020883;28;20504;-77
2023/12/02 06:20:13;;;;;;;4.10;2.60;;;-1.80;99.90;;;-1.48;100.00;97326.50;5020939;28;20461;-79
2023/12/02 06:22:44;;;;;;;3.33;3.03;;;-2.10;99.90;;;-1.44;100.00;97320.19;5021779;28;20458;-78
2023/12/02 06:25:12;;;;;;;6.90;3.87;;;-2.00;99.90;;;-1.47;100.00;97328.97;5020578;28;20458;-77
2023/12/02 06:27:41;;;;;;;5.30;2.73;;;-1.90;99.90;;;-1.39;100.00;97329.13;5021406;28;20473;-77
2023/12/02 06:30:10;;;;;;;4.37;2.70;;;-1.90;99.90;;;-1.36;100.00;97326.31;5021269;28;20529;-77
2023/12/02 06:32:42;;;;;;;4.93;3.20;;;-1.90;99.90;;;-1.36;100.00;97343.44;5020516;28;20482;-77
2023/12/02 06:35:12;;;;;;;5.47;3.10;;;-1.80;99.90;;;-1.61;100.00;97335.25;5021632;28;20466;-77
2023/12/02 06:37:45;;;;;;;4.20;2.97;;;-2.10;99.90;;;-1.51;100.00;97350.66;5021250;28;20468;-77
2023/12/02 06:40:17;;;;;;;3.33;2.70;;;-2.00;99.90;;;-1.47;100.00;97351.22;5021531;28;20552;-77
2023/12/02 06:42:46;;;;;;;4.20;2.27;;;-2.00;99.90;;;-1.48;100.00;97354.72;5022324;28;20971;-78
2023/12/02 06:45:15;;;;;;;3.23;2.57;;;-2.10;99.90;;;-1.55;100.00;97370.63;5021504;28;20465;-77
2023/12/02 06:47:44;;;;;;;6.10;3.00;;;-2.10;99.90;;;-1.55;100.00;97365.47;5019990;28;20839;-77
2023/12/02 06:50:13;;;;;;;4.10;3.10;;;-2.10;99.90;;;-1.52;100.00;97367.78;5018680;28;20474;-78
2023/12/02 06:52:41;;;;;;;3.70;3.10;;;-2.10;99.90;;;-1.50;100.00;97380.50;5017519;28;20499;-77
2023/12/02 06:55:11;;;;;;;2.90;2.67;;;-2.00;99.90;;;-1.56;100.00;97386.91;5018260;28;20828;-77
2023/12/02 06:57:42;;;;;;;4.87;3.03;;;-2.10;99.90;;;-1.57;100.00;97393.00;5018308;28;20891;-77
2023/12/02 07:00:13;;;;;;;3.43;2.60;;;-2.10;99.90;;;-1.53;100.00;97398.69;5018393;28;20470;-77
2023/12/02 07:02:43;;;;;;;3.13;2.50;;;-2.10;99.90;;;-1.46;100.00;97404.94;5017316;28;20470;-78
2023/12/02 07:05:11;;;;;;;3.10;2.50;;;-2.10;99.90;;;-1.63;100.00;97403.75;5017901;28;20463;-77
2023/12/02 07:07:40;;;;;;;4.40;2.63;;;-2.20;99.90;;;-1.52;100.00;97410.53;5018992;28;20684;-78
2023/12/02 07:10:11;;;;;;;3.43;2.80;;;-2.10;99.90;;;-1.52;100.00;97411.34;5019989;28;20471;-78
2023/12/02 07:12:39;;;;;;;3.23;2.40;;;-2.10;99.90;;;-1.51;100.00;97412.19;5018634;28;20484;-78
2023/12/02 07:15:09;;;;;;;2.90;2.20;;;-2.00;99.90;;;-1.57;100.00;97416.06;5020339;28;20461;-78
2023/12/02 07:17:38;;;;;;;6.73;3.33;;;-2.10;99.90;;;-1.69;100.00;97427.31;5018817;28;20494;-77
2023/12/02 07:20:08;;;;;;;3.23;2.23;;;-2.20;99.90;;;-1.71;100.00;97431.78;5019357;28;20481;-79
2023/12/02 07:22:37;;;;;;;5.30;2.33;;;-2.30;99.90;;;-1.61;100.00;97432.63;5018231;28;20477;-77
2023/12/02 07:25:07;;;;;;;5.10;2.87;;;-2.20;99.90;;;-1.84;100.00;97443.16;5017379;28;20462;-78
2023/12/02 07:27:37;;;;;;;2.93;2.60;;;-2.40;99.90;;;-1.82;100.00;97439.53;5016567;28;20471;-77
2023/12/02 07:30:08;;;;;;;3.90;2.80;;;-2.40;99.90;;;-1.78;100.00;97448.59;5020773;28;20461;-77
2023/12/02 07:32:39;;;;;;;5.27;2.80;;;-2.50;99.90;;;-1.84;100.00;97443.94;5019580;28;20496;-78
2023/12/02 07:35:08;;;;;;;6.23;3.17;;;-2.60;99.90;;;-1.84;100.00;97445.72;5018855;28;21013;-77
2023/12/02 07:37:37;;;;;;;6.73;2.57;;;-2.50;99.90;;;-1.71;100.00;97454.84;5017428;28;20482;-78
2023/12/02 07:40:07;;;;;;;10.57;3.70;;;-2.30;99.90;;;-1.66;100.00;97454.44;5018193;28;20478;-77
2023/12/02 07:42:37;;;;;;;3.73;2.40;;;-2.30;99.90;;;-1.58;100.00;97452.88;5019048;28;20470;-78
2023/12/02 07:45:07;;;;;;;4.60;2.93;;;-2.20;99.90;;;-1.54;100.00;97454.25;5018543;28;20955;-78
2023/12/02 07:47:35;;;;;;;3.23;2.50;;;-2.20;99.90;;;-1.57;100.00;97453.69;5019335;28;20477;-78
2023/12/02 07:50:05;;;;;;;3.10;2.23;;;-2.20;99.90;;;-1.54;100.00;97456.81;5019035;28;20794;-78
2023/12/02 07:52:33;;;;;;;3.87;2.67;;;-2.20;99.90;;;-1.58;100.00;97458.00;5018428;28;20550;-77
2023/12/02 07:55:02;;;;;;;6.67;3.13;;;-2.20;99.90;;;-1.61;100.00;97463.38;5015820;28;20552;-77
2023/12/02 07:57:30;;;;;;;5.30;2.70;;;-2.20;99.90;;;-1.67;100.00;97471.59;5017966;28;20475;-78
2023/12/02 08:00:01;;;;;;;4.87;3.40;;;-2.10;99.90;;;-1.79;100.00;97480.25;5018981;28;20461;-78
2023/12/02 08:02:30;;;;;;;4.40;2.67;;;-2.40;99.90;;;-1.85;100.00;97488.44;5018807;28;20869;-78
2023/12/02 08:04:58;;;;;;;5.20;3.00;;;-2.40;99.90;;;-1.93;100.00;97480.56;5017065;28;20463;-77
2023/12/02 08:07:30;;;;;;;3.80;2.70;;;-2.50;99.90;;;-1.82;100.00;97488.19;5018400;28;20516;-78
2023/12/02 08:09:59;;;;;;;5.23;3.20;;;-2.40;99.90;;;-1.84;100.00;97496.94;5017563;28;20556;-77
2023/12/02 08:12:27;;;;;;;6.57;3.33;;;-2.30;99.90;;;-1.96;100.00;97496.19;5016334;28;20516;-78
2023/12/02 08:14:56;;;;;;;8.80;3.07;;;-2.40;99.90;;;-1.88;100.00;97493.81;5017761;28;20495;-77
2023/12/02 08:17:26;;;;;;;3.97;2.37;;;-2.40;99.90;;;-1.77;100.00;97498.88;5016280;28;20880;-78
2023/12/02 08:19:55;;;;;;;7.10;2.73;;;-2.40;99.90;;;-1.79;100.00;97500.75;5016729;28;20838;-77
2023/12/02 08:22:24;;;;;;;5.07;3.20;;;-2.30;99.90;;;-1.88;100.00;97500.69;5016022;28;20470;-78
2023/12/02 08:24:53;;;;;;;6.03;3.70;;;-2.40;99.90;;;-1.82;100.00;97507.88;5016991;28;20476;-78
2023/12/02 08:27:22;;;;;;;4.30;2.40;;;-2.30;99.90;;;-1.80;100.00;97508.53;5016280;28;20466;-78
2023/12/02 08:29:50;;;;;;;5.70;2.70;;;-2.30;99.90;;;-1.79;100.00;97510.19;5018864;28;20470;-78
2023/12/02 08:32:19;;;;;;;4.70;2.73;;;-2.20;99.90;;;-1.98;100.00;97510.88;5018175;28;20525;-78
2023/12/02 08:34:49;;;;;;;3.20;2.73;;;-2.30;99.90;;;-1.93;100.00;97503.59;5019040;28;20493;-78
2023/12/02 08:37:18;;;;;;;6.37;3.90;;;-2.30;99.90;;;-1.79;100.00;97507.63;5020089;28;20520;-77
2023/12/02 08:39:46;;;;;;;5.40;3.23;;;-2.30;99.90;;;-1.67;100.00;97515.16;5019506;28;20472;-78
2023/12/02 08:42:15;;;;;;;6.10;3.40;;;-2.20;99.90;;;-1.72;100.00;97514.69;5017001;28;20958;-77
2023/12/02 08:44:44;;;;;;;7.10;2.83;;;-2.20;99.90;;;-1.77;100.00;97509.13;5017483;28;20463;-77
2023/12/02 08:47:12;;;;;;;6.93;3.23;;;-2.20;99.90;;;-1.64;100.00;97514.91;5018357;28;20477;-78
2023/12/02 08:49:41;;;;;;;5.57;4.37;;;-2.10;99.90;;;-1.59;100.00;97523.00;5018295;28;20484;-78
2023/12/02 08:52:11;;;;;;;6.10;2.40;;;-2.20;99.90;;;-1.68;100.00;97517.81;5019880;28;20454;-77
2023/12/02 08:54:39;;;;;;;5.57;3.43;;;-2.30;99.90;;;-1.70;100.00;97520.50;5018588;28;20490;-77
2023/12/02 08:57:09;;;;;;;5.80;3.70;;;-2.40;99.90;;;-1.73;100.00;97519.94;5016284;28;20468;-77
2023/12/02 08:59:37;;;;;;;3.17;2.70;;;-2.40;99.90;;;-1.62;100.00;97523.25;5017858;28;20976;-78
2023/12/02 09:02:08;;;;;;;3.90;2.97;;;-2.30;99.90;;;-1.59;100.00;97525.56;5018533;28;20463;-78
2023/12/02 09:04:37;;;;;;;7.60;3.50;;;-2.20;99.90;;;-1.56;100.00;97521.94;5017482;28;20975;-77
2023/12/02 09:07:06;;;;;;;5.13;2.73;;;-2.20;99.90;;;-1.69;100.00;97529.81;5016418;28;20966;-78
2023/12/02 09:09:35;;;;;;;12.30;3.50;;;-2.30;99.90;;;-1.71;100.00;97524.00;5017107;28;20946;-77
2023/12/02 09:12:05;;;;;;;4.90;3.00;;;-2.40;99.90;;;-1.67;100.00;97525.41;5019195;28;20511;-77
2023/12/02 09:14:33;;;;;;;4.60;3.27;;;-2.20;99.90;;;-1.65;100.00;97538.88;5017607;28;20876;-77
2023/12/02 09:17:02;;;;;;;4.93;2.70;;;-2.10;99.90;;;-1.64;100.00;97530.28;5016581;28;20991;-77
2023/12/02 09:19:54;;;;;;;4.37;3.33;;;-2.10;99.90;;;-1.67;100.00;97540.78;5017809;28;20506;-78
2023/12/02 09:22:47;;;;;;;7.50;3.70;;;-2.00;99.90;;;-1.70;100.00;97538.44;5016252;28;20502;-78
2023/12/02 09:25:28;;;;;;;6.97;3.60;;;-2.00;99.90;;;-1.62;100.00;97543.75;5017983;28;20458;-78
2023/12/02 09:28:17;;;;;;;5.57;4.00;;;-2.00;99.90;;;-1.57;100.00;97546.78;5017891;28;20466;-78
2023/12/02 09:31:01;;;;;;;5.70;3.37;;;-2.00;99.90;;;-1.62;100.00;97546.31;5017601;28;20473;-77
2023/12/02 09:33:39;;;;;;;7.30;3.33;;;-2.10;99.90;;;-1.74;100.00;97559.31;5019096;28;20573;-77
2023/12/02 09:36:30;;;;;;;5.57;3.27;;;-2.00;99.90;;;-1.78;100.00;97556.19;5018229;28;20601;-77
2023/12/02 09:39:47;;;;;;;5.77;3.60;;;-2.20;99.90;;;-1.67;100.00;97561.28;5017321;28;20453;-78
2023/12/02 09:42:18;;;;;;;6.87;3.80;;;-2.10;99.90;;;-1.59;100.00;97553.75;5017420;28;20469;-78
2023/12/02 09:45:01;;;;;;;5.13;3.60;;;-2.10;99.90;;;-1.52;100.00;97560.03;5018690;28;20543;-78
2023/12/02 09:47:41;;;;;;;6.60;3.70;;;-2.00;99.90;;;-1.48;100.00;97562.31;5017236;28;20466;-78
2023/12/02 09:50:12;;;;;;;5.53;3.73;;;-1.90;99.90;;;-1.48;100.00;97564.91;5015889;28;20942;-78
2023/12/02 09:52:55;;;;;;;7.00;4.00;;;-2.00;99.90;;;-1.52;100.00;97565.16;5018194;28;20466;-78
2023/12/02 09:55:37;;;;;;;5.17;3.60;;;-2.10;99.90;;;-1.49;100.00;97565.84;5014672;28;20481;-78
2023/12/02 09:58:22;;;;;;;5.47;3.63;;;-2.10;99.90;;;-1.41;100.00;97571.16;5015519;28;20868;-78
2023/12/02 10:00:56;;;;;;;5.77;3.77;;;-2.00;99.90;;;-1.38;100.00;97563.22;5017910;28;20576;-78
2023/12/02 10:04:02;;;;;;;7.57;4.07;;;-1.90;99.90;;;-1.38;100.00;97576.84;5015667;28;20501;-78
2023/12/02 10:06:53;;;;;;;7.43;3.90;;;-1.90;99.90;;;-1.39;100.00;97574.41;5015097;28;20475;-78
2023/12/02 10:09:44;;;;;;;7.03;4.50;;;-1.80;99.90;;;-1.31;100.00;97577.97;5013834;28;21063;-78
2023/12/02 10:12:36;;;;;;;7.20;4.07;;;-1.80;99.90;;;-1.34;100.00;97578.22;5014916;28;20471;-78
2023/12/02 10:15:14;;;;;;;7.37;4.43;;;-1.60;99.90;;;-1.31;100.00;97587.41;5016410;28;20486;-78
2023/12/02 10:17:53;;;;;;;5.90;3.43;;;-1.60;99.90;;;-1.28;100.00;97587.97;5015373;28;20543;-78
2023/12/02 10:20:29;;;;;;;7.60;4.00;;;-1.70;99.90;;;-1.33;100.00;97584.16;5017858;28;20496;-78
2023/12/02 10:23:04;;;;;;;6.23;3.73;;;-1.90;99.90;;;-1.23;100.00;97591.00;5017156;28;20536;-78
2023/12/02 10:25:41;;;;;;;5.23;3.77;;;-1.80;99.90;;;-1.25;100.00;97595.41;5017701;28;20964;-79